Time;durP1;ratioP1;P1;durP2;ratioP2;P2;SDS_P1;SDS_P2;PMS_P1;PMS_P2;Temp;Humidity;BMP_temperature;BMP_pressure;BME280_temperature;BME280_humidity;BME280_pressure;Samples;Min_cycle;Max_cycle;Signal;HPM_P1;HPM_P2
2024/01/02 00:02:22;;;;;;;10.85;2.33;;;;;;;;;;4917587;29;20063;-83
2024/01/02 00:04:52;;;;;;;;;;;;;;;;;;4935536;29;20039;-85
2024/01/02 00:07:22;;;;;;;16.27;2.75;;;;;;;;;;4934731;29;20294;-84
2024/01/02 00:09:52;;;;;;;13.05;1.98;;;;;;;;;;4917758;29;20058;-83
2024/01/02 00:12:22;;;;;;;11.32;2.42;;;;;;;;;;4917634;29;20463;-84
2024/01/02 00:15:00;;;;;;;19.33;2.70;;;;;;;;;;4916245;29;20047;-83
2024/01/02 00:17:37;;;;;;;15.75;2.35;;;;;;;;;;4917314;29;20051;-84
2024/01/02 00:20:08;;;;;;;11.40;2.22;;;;;;;;;;4934319;29;20044;-83
2024/01/02 00:23:05;;;;;;;13.55;3.03;;;;;;;;;;4931813;29;20055;-85
2024/01/02 00:25:35;;;;;;;;;;;;;;;;;;4918557;29;20048;-82
2024/01/02 00:28:06;;;;;;;12.93;2.50;;;;;;;;;;4919320;29;19919;-82
2024/01/02 00:31:23;;;;;;;17.08;2.65;;;;;;;;;;4895798;29;20040;-86
2024/01/02 00:33:53;;;;;;;21.52;3.10;;;;;;;;;;4876471;29;20057;-85
2024/01/02 00:36:24;;;;;;;12.45;2.90;;;;;;;;;;4876644;29;20428;-83
2024/01/02 00:38:54;;;;;;;14.80;4.13;;;;;;;;;;4861099;29;20532;-85
2024/01/02 00:41:34;;;;;;;15.10;4.35;;;;;;;;;;4861140;29;20054;-84
2024/01/02 00:44:06;;;;;;;13.98;3.00;;;;;;;;;;4861376;29;20555;-84
2024/01/02 00:46:36;;;;;;;18.25;3.28;;;;;;;;;;4877693;29;20512;-83
2024/01/02 00:49:09;;;;;;;13.15;2.95;;;;;;;;;;4865606;29;20068;-82
2024/01/02 00:52:28;;;;;;;9.63;2.85;;;;;;;;;;4865446;29;20147;-85
2024/01/02 00:55:00;;;;;;;10.45;2.50;;;;;;;;;;4865436;29;20061;-84
2024/01/02 00:57:31;;;;;;;13.85;2.72;;;;;;;;;;4881871;29;20049;-83
2024/01/02 01:00:04;;;;;;;13.77;2.20;;;;;;;;;;4886165;29;20070;-82
2024/01/02 01:02:34;;;;;;;12.15;2.30;;;;;;;;;;4854350;29;20397;-85
2024/01/02 01:05:06;;;;;;;7.60;2.47;;;;;;;;;;4882525;29;20063;-86
2024/01/02 01:07:37;;;;;;;10.15;2.47;;;;;;;;;;4901445;29;20052;-82
2024/01/02 01:10:08;;;;;;;7.53;2.35;;;;;;;;;;4932355;29;20391;-81
2024/01/02 01:12:39;;;;;;;12.18;2.25;;;;;;;;;;4940414;29;20047;-81
2024/01/02 01:15:10;;;;;;;6.93;2.20;;;;;;;;;;4920995;29;20044;-82
2024/01/02 01:17:41;;;;;;;6.60;2.47;;;;;;;;;;4920786;29;20044;-83
2024/01/02 01:20:11;;;;;;;8.80;2.33;;;;;;;;;;4921105;29;20109;-85
2024/01/02 01:22:42;;;;;;;6.88;2.60;;;;;;;;;;4920759;29;20046;-83
2024/01/02 01:25:12;;;;;;;9.60;2.17;;;;;;;;;;4919965;29;20399;-81
2024/01/02 01:27:42;;;;;;;8.95;2.30;;;;;;;;;;4905189;29;20063;-84
2024/01/02 01:30:12;;;;;;;9.88;2.33;;;;;;;;;;4935693;29;20454;-82
2024/01/02 01:32:42;;;;;;;8.40;2.53;;;;;;;;;;4919452;29;20509;-82
2024/01/02 01:35:37;;;;;;;8.55;2.15;;;;;;;;;;4919934;29;20047;-83
2024/01/02 01:38:08;;;;;;;11.48;2.33;;;;;;;;;;4918201;29;20044;-83
2024/01/02 01:40:38;;;;;;;12.95;2.70;;;;;;;;;;4902752;29;20052;-82
2024/01/02 01:43:12;;;;;;;4.55;2.55;;;;;;;;;;4919033;29;20043;-81
2024/01/02 01:45:43;;;;;;;9.40;2.67;;;;;;;;;;4886583;29;20052;-82
2024/01/02 01:48:16;;;;;;;9.82;2.40;;;;;;;;;;4918078;29;20036;-84
2024/01/02 01:50:46;;;;;;;7.20;2.40;;;;;;;;;;4919260;29;20055;-83
2024/01/02 01:53:18;;;;;;;7.10;2.55;;;;;;;;;;4901509;29;20102;-83
2024/01/02 01:55:49;;;;;;;10.32;2.28;;;;;;;;;;4919174;29;20050;-82
2024/01/02 01:58:20;;;;;;;7.38;2.53;;;;;;;;;;4900783;29;20048;-81
2024/01/02 02:00:50;;;;;;;9.13;2.30;;;;;;;;;;4901040;29;20487;-83
2024/01/02 02:04:01;;;;;;;6.75;2.30;;;;;;;;;;4901075;29;20052;-83
2024/01/02 02:07:09;;;;;;;11.18;2.20;;;;;;;;;;4860972;29;20058;-84
2024/01/02 02:09:39;;;;;;;9.40;2.60;;;;;;;;;;4860202;29;20058;-84
2024/01/02 02:12:10;;;;;;;17.67;2.53;;;;;;;;;;4860247;29;20068;-82
2024/01/02 02:14:40;;;;;;;7.97;2.45;;;;;;;;;;4859997;29;20065;-81
2024/01/02 02:17:19;;;;;;;10.55;2.35;;;;;;;;;;4858651;29;20060;-81
2024/01/02 02:19:49;;;;;;;9.60;2.97;;;;;;;;;;4845093;29;20046;-83
2024/01/02 02:22:35;;;;;;;7.97;2.63;;;;;;;;;;4844583;29;20500;-83
2024/01/02 02:25:10;;;;;;;11.93;3.80;;;;;;;;;;4859445;29;20049;-82
2024/01/02 02:27:40;;;;;;;12.52;4.03;;;;;;;;;;4859970;29;20045;-82
2024/01/02 02:30:11;;;;;;;8.32;2.63;;;;;;;;;;4858865;29;20057;-82
2024/01/02 02:32:41;;;;;;;12.27;2.42;;;;;;;;;;4859660;29;20060;-82
2024/01/02 02:35:11;;;;;;;9.00;2.80;;;;;;;;;;4859403;29;20428;-82
2024/01/02 02:37:41;;;;;;;7.50;2.60;;;;;;;;;;4859351;29;20057;-83
2024/01/02 02:40:12;;;;;;;7.28;2.95;;;;;;;;;;4859870;29;20187;-82
2024/01/02 02:42:43;;;;;;;7.22;2.40;;;;;;;;;;4859616;29;20508;-82
2024/01/02 02:45:13;;;;;;;8.32;2.58;;;;;;;;;;4914434;29;20052;-82
2024/01/02 02:47:44;;;;;;;12.10;2.83;;;;;;;;;;4917767;29;20044;-82
2024/01/02 02:50:16;;;;;;;7.70;2.42;;;;;;;;;;4885354;29;20495;-82
2024/01/02 02:52:46;;;;;;;11.73;2.70;;;;;;;;;;4918193;29;20044;-81
2024/01/02 02:55:15;;;;;;;10.40;2.85;;;;;;;;;;4900463;29;20055;-81
2024/01/02 02:57:46;;;;;;;5.85;2.55;;;;;;;;;;4917841;29;20048;-83
2024/01/02 03:00:17;;;;;;;14.43;3.03;;;;;;;;;;4917554;29;20491;-81
2024/01/02 03:02:47;;;;;;;12.00;3.00;;;;;;;;;;4917760;29;20055;-82
2024/01/02 03:05:17;;;;;;;14.38;2.97;;;;;;;;;;4917833;29;20044;-85
2024/01/02 03:07:48;;;;;;;15.52;3.97;;;;;;;;;;4899845;29;20177;-82
2024/01/02 03:10:19;;;;;;;13.45;4.25;;;;;;;;;;4900035;29;20047;-84
2024/01/02 03:12:50;;;;;;;12.02;3.55;;;;;;;;;;4900386;29;20479;-83
2024/01/02 03:15:21;;;;;;;13.05;3.97;;;;;;;;;;4917471;29;20051;-82
2024/01/02 03:17:52;;;;;;;14.68;3.65;;;;;;;;;;4900164;29;20044;-82
2024/01/02 03:20:23;;;;;;;13.77;4.38;;;;;;;;;;4900762;29;20395;-83
2024/01/02 03:22:55;;;;;;;12.75;2.92;;;;;;;;;;4917029;29;20471;-84
2024/01/02 03:25:25;;;;;;;12.77;3.42;;;;;;;;;;4917709;29;20051;-82
2024/01/02 03:27:55;;;;;;;13.80;3.60;;;;;;;;;;4917102;29;20364;-82
2024/01/02 03:30:25;;;;;;;12.52;2.90;;;;;;;;;;4900338;29;20472;-82
2024/01/02 03:32:55;;;;;;;8.00;3.40;;;;;;;;;;4916999;29;20040;-81
2024/01/02 03:35:26;;;;;;;15.25;3.45;;;;;;;;;;4917083;29;20052;-82
2024/01/02 03:37:57;;;;;;;9.30;3.25;;;;;;;;;;4884483;29;20061;-84
2024/01/02 03:40:27;;;;;;;17.67;3.40;;;;;;;;;;4900537;29;20055;-83
2024/01/02 03:42:57;;;;;;;15.27;3.42;;;;;;;;;;4900457;29;20067;-84
2024/01/02 03:45:28;;;;;;;9.73;3.10;;;;;;;;;;4907149;29;20377;-81
2024/01/02 03:47:58;;;;;;;12.60;3.00;;;;;;;;;;4933080;29;20051;-81
2024/01/02 03:50:28;;;;;;;9.55;3.00;;;;;;;;;;4924245;29;20048;-84
2024/01/02 03:52:58;;;;;;;14.02;2.75;;;;;;;;;;4928162;29;20044;-80
2024/01/02 03:55:28;;;;;;;11.57;3.13;;;;;;;;;;4917130;29;20040;-84
2024/01/02 03:57:59;;;;;;;7.13;3.30;;;;;;;;;;4899791;29;20048;-83
2024/01/02 04:00:29;;;;;;;13.07;2.97;;;;;;;;;;4916709;29;20044;-83
2024/01/02 04:03:00;;;;;;;10.20;2.83;;;;;;;;;;4899500;29;20052;-83
2024/01/02 04:05:31;;;;;;;5.65;2.60;;;;;;;;;;4917194;29;20048;-83
2024/01/02 04:08:01;;;;;;;7.55;2.78;;;;;;;;;;4900477;29;20494;-82
2024/01/02 04:10:32;;;;;;;8.40;2.72;;;;;;;;;;4917226;29;20473;-82
2024/01/02 04:13:02;;;;;;;8.50;3.25;;;;;;;;;;4916424;29;20048;-84
2024/01/02 04:15:32;;;;;;;12.00;3.17;;;;;;;;;;4899582;29;20129;-82
2024/01/02 04:18:03;;;;;;;8.70;3.00;;;;;;;;;;4900175;29;20036;-82
2024/01/02 04:20:35;;;;;;;9.05;3.10;;;;;;;;;;4901293;29;20071;-81
2024/01/02 04:23:05;;;;;;;11.48;2.97;;;;;;;;;;4920298;29;20040;-84
2024/01/02 04:25:39;;;;;;;6.72;2.88;;;;;;;;;;4903158;29;20048;-82
2024/01/02 04:28:10;;;;;;;9.77;2.90;;;;;;;;;;4920193;29;20036;-83
2024/01/02 04:30:40;;;;;;;9.90;3.50;;;;;;;;;;4920739;29;20383;-83
2024/01/02 04:33:11;;;;;;;10.57;3.60;;;;;;;;;;4920316;29;20502;-84
2024/01/02 04:35:42;;;;;;;7.55;2.70;;;;;;;;;;4920030;29;20059;-85
2024/01/02 04:38:12;;;;;;;7.57;3.15;;;;;;;;;;4903527;29;20048;-85
2024/01/02 04:40:43;;;;;;;10.98;2.88;;;;;;;;;;4920601;29;20055;-82
2024/01/02 04:43:13;;;;;;;8.27;2.70;;;;;;;;;;4935174;29;20044;-82
2024/01/02 04:45:43;;;;;;;5.05;2.70;;;;;;;;;;4939226;29;20507;-82
2024/01/02 04:48:13;;;;;;;7.88;3.17;;;;;;;;;;4922085;29;20047;-81
2024/01/02 04:50:43;;;;;;;10.30;2.80;;;;;;;;;;4938926;29;20035;-81
2024/01/02 04:53:14;;;;;;;11.52;2.97;;;;;;;;;;4922227;29;20055;-82
2024/01/02 04:55:44;;;;;;;9.57;2.88;;;;;;;;;;4922412;29;20051;-82
2024/01/02 04:58:15;;;;;;;8.60;2.72;;;;;;;;;;4922502;29;20076;-81
2024/01/02 05:00:46;;;;;;;11.43;3.08;;;;;;;;;;4939076;29;20036;-84
2024/01/02 05:03:15;;;;;;;9.63;3.10;;;;;;;;;;4921752;29;20051;-81
2024/01/02 05:05:46;;;;;;;4.68;2.63;;;;;;;;;;4939002;29;20044;-84
2024/01/02 05:08:16;;;;;;;9.40;3.05;;;;;;;;;;4938384;29;20047;-83
2024/01/02 05:10:46;;;;;;;6.82;3.20;;;;;;;;;;4938454;29;20040;-82
2024/01/02 05:13:16;;;;;;;7.97;3.15;;;;;;;;;;4921450;29;20047;-83
2024/01/02 05:15:47;;;;;;;9.18;3.63;;;;;;;;;;4938326;29;20054;-82
2024/01/02 05:18:17;;;;;;;7.90;3.30;;;;;;;;;;4921137;29;20043;-82
2024/01/02 05:20:47;;;;;;;8.50;3.13;;;;;;;;;;4938377;29;20055;-81
2024/01/02 05:23:18;;;;;;;6.55;2.90;;;;;;;;;;4921604;29;20048;-81
2024/01/02 05:25:49;;;;;;;5.88;3.03;;;;;;;;;;4922056;29;20044;-82
2024/01/02 05:28:20;;;;;;;7.22;3.10;;;;;;;;;;4938003;29;20378;-83
2024/01/02 05:30:50;;;;;;;7.78;3.03;;;;;;;;;;4921911;29;20051;-81
2024/01/02 05:33:20;;;;;;;9.45;2.85;;;;;;;;;;4937495;29;20044;-81
2024/01/02 05:35:50;;;;;;;7.07;2.85;;;;;;;;;;4938516;29;20046;-81
2024/01/02 05:38:24;;;;;;;7.60;2.85;;;;;;;;;;4938260;29;20117;-81
2024/01/02 05:40:55;;;;;;;8.85;2.95;;;;;;;;;;4937269;29;20047;-81
2024/01/02 05:43:26;;;;;;;5.97;2.67;;;;;;;;;;4920985;29;20098;-81
2024/01/02 05:45:55;;;;;;;6.13;3.00;;;;;;;;;;4921507;29;20402;-84
2024/01/02 05:48:26;;;;;;;7.97;2.70;;;;;;;;;;4937512;29;20063;-82
2024/01/02 05:50:57;;;;;;;5.30;2.80;;;;;;;;;;4920427;29;20048;-83
2024/01/02 05:53:27;;;;;;;10.30;3.03;;;;;;;;;;4921271;29;20051;-83
2024/01/02 05:55:57;;;;;;;10.98;3.13;;;;;;;;;;4936876;29;20051;-82
2024/01/02 05:58:27;;;;;;;10.02;3.10;;;;;;;;;;4937764;29;20044;-85
2024/01/02 06:00:58;;;;;;;7.68;2.70;;;;;;;;;;4937928;29;20466;-82
2024/01/02 06:03:30;;;;;;;11.35;2.90;;;;;;;;;;4920319;29;20052;-82
2024/01/02 06:06:00;;;;;;;6.70;2.90;;;;;;;;;;4921347;29;20074;-81
2024/01/02 06:08:30;;;;;;;6.25;2.60;;;;;;;;;;4937500;29;20467;-81
2024/01/02 06:11:00;;;;;;;6.13;2.47;;;;;;;;;;4937649;29;20047;-84
2024/01/02 06:13:30;;;;;;;8.43;2.78;;;;;;;;;;4937264;29;20048;-82
2024/01/02 06:16:00;;;;;;;13.32;4.13;;;;;;;;;;4920116;29;20475;-80
2024/01/02 06:18:31;;;;;;;11.73;3.00;;;;;;;;;;4937719;29;20039;-82
2024/01/02 06:21:02;;;;;;;4.60;2.30;;;;;;;;;;4937285;29;20367;-81
2024/01/02 06:23:33;;;;;;;4.40;2.40;;;;;;;;;;4919826;29;20482;-81
2024/01/02 06:26:15;;;;;;;10.10;2.13;;;;;;;;;;4937224;29;20047;-81
2024/01/02 06:28:45;;;;;;;6.20;3.47;;;;;;;;;;4936988;29;20382;-81
2024/01/02 06:31:19;;;;;;;10.13;2.65;;;;;;;;;;4937106;29;20379;-82
2024/01/02 06:33:49;;;;;;;8.27;2.58;;;;;;;;;;4920109;29;20071;-83
2024/01/02 06:36:19;;;;;;;6.93;2.50;;;;;;;;;;4919896;29;20044;-83
2024/01/02 06:38:51;;;;;;;8.60;2.60;;;;;;;;;;4937222;29;20067;-81
2024/01/02 06:41:21;;;;;;;13.63;3.42;;;;;;;;;;4919715;29;20058;-81
2024/01/02 06:43:51;;;;;;;8.30;2.47;;;;;;;;;;4920218;29;20048;-81
2024/01/02 06:46:21;;;;;;;6.57;2.15;;;;;;;;;;4920468;29;20044;-81
2024/01/02 06:48:51;;;;;;;7.60;2.10;;;;;;;;;;4936508;29;20047;-80
2024/01/02 06:51:21;;;;;;;4.35;2.28;;;;;;;;;;4919991;29;20059;-82
2024/01/02 06:53:51;;;;;;;7.68;2.42;;;;;;;;;;4935683;29;20055;-82
2024/01/02 06:56:22;;;;;;;9.80;2.30;;;;;;;;;;4919884;29;20075;-83
2024/01/02 06:58:52;;;;;;;6.05;2.60;;;;;;;;;;4936654;29;20144;-82
2024/01/02 07:01:26;;;;;;;4.75;2.20;;;;;;;;;;4936822;29;20474;-81
2024/01/02 07:03:56;;;;;;;11.00;2.55;;;;;;;;;;4936258;29;20482;-82
2024/01/02 07:06:28;;;;;;;8.45;2.17;;;;;;;;;;4936326;29;20062;-84
2024/01/02 07:08:59;;;;;;;5.72;2.25;;;;;;;;;;4936783;29;20047;-85
2024/01/02 07:11:29;;;;;;;10.23;2.22;;;;;;;;;;4936624;29;20044;-84
2024/01/02 07:13:59;;;;;;;5.53;2.40;;;;;;;;;;4918572;29;20482;-82
2024/01/02 07:16:31;;;;;;;8.52;3.03;;;;;;;;;;4919626;29;20054;-84
2024/01/02 07:19:02;;;;;;;8.65;2.72;;;;;;;;;;4936468;29;20046;-83
2024/01/02 07:21:32;;;;;;;8.45;2.85;;;;;;;;;;4919560;29;20044;-82
2024/01/02 07:24:01;;;;;;;9.32;2.83;;;;;;;;;;4936286;29;20048;-81
2024/01/02 07:26:32;;;;;;;6.05;2.67;;;;;;;;;;4918950;29;20054;-82
2024/01/02 07:29:02;;;;;;;11.88;2.38;;;;;;;;;;4935005;29;20051;-81
2024/01/02 07:31:34;;;;;;;7.97;2.78;;;;;;;;;;4916421;29;20048;-82
2024/01/02 07:34:05;;;;;;;9.30;2.55;;;;;;;;;;4918087;29;20051;-82
2024/01/02 07:36:35;;;;;;;8.68;2.70;;;;;;;;;;4916406;29;20055;-81
2024/01/02 07:39:06;;;;;;;5.53;2.38;;;;;;;;;;4911852;29;20058;-83
2024/01/02 07:41:37;;;;;;;6.40;2.63;;;;;;;;;;4903830;29;20044;-84
2024/01/02 07:44:08;;;;;;;5.18;2.40;;;;;;;;;;4934301;29;20379;-82
2024/01/02 07:46:38;;;;;;;7.07;2.38;;;;;;;;;;4918281;29;20048;-82
2024/01/02 07:49:09;;;;;;;7.40;2.65;;;;;;;;;;4935454;29;20490;-82
2024/01/02 07:51:39;;;;;;;15.95;2.45;;;;;;;;;;4935466;29;20040;-83
2024/01/02 07:54:09;;;;;;;10.43;3.10;;;;;;;;;;4919084;29;20052;-82
2024/01/02 07:56:39;;;;;;;8.32;2.70;;;;;;;;;;4922196;29;20043;-82
2024/01/02 07:59:10;;;;;;;7.15;2.90;;;;;;;;;;4909452;29;20502;-84
2024/01/02 08:01:40;;;;;;;7.28;2.63;;;;;;;;;;4942197;29;20039;-81
2024/01/02 08:04:11;;;;;;;10.70;3.60;;;;;;;;;;4924940;29;20055;-82
2024/01/02 08:06:41;;;;;;;5.35;2.33;;;;;;;;;;4942383;29;20054;-83
2024/01/02 08:09:12;;;;;;;7.10;2.88;;;;;;;;;;4926150;29;20043;-82
2024/01/02 08:11:43;;;;;;;9.52;2.90;;;;;;;;;;4909485;29;20120;-85
2024/01/02 08:14:14;;;;;;;10.18;3.20;;;;;;;;;;4909215;29;20419;-81
2024/01/02 08:16:44;;;;;;;7.90;2.50;;;;;;;;;;4923933;29;20047;-81
2024/01/02 08:19:15;;;;;;;10.52;2.60;;;;;;;;;;4924789;29;20376;-82
2024/01/02 08:21:46;;;;;;;6.90;2.30;;;;;;;;;;4942951;29;20047;-82
2024/01/02 08:24:17;;;;;;;8.70;2.92;;;;;;;;;;4942597;29;20374;-81
2024/01/02 08:26:47;;;;;;;5.88;2.25;;;;;;;;;;4942203;29;20047;-84
2024/01/02 08:29:17;;;;;;;7.90;2.50;;;;;;;;;;4925169;29;20051;-83
2024/01/02 08:31:48;;;;;;;8.80;2.47;;;;;;;;;;4942057;29;20475;-84
2024/01/02 08:34:19;;;;;;;8.43;2.80;;;;;;;;;;4923827;29;20055;-82
2024/01/02 08:36:49;;;;;;;10.40;2.70;;;;;;;;;;4941802;29;20048;-82
2024/01/02 08:39:19;;;;;;;6.15;2.35;;;;;;;;;;4923589;29;20052;-81
2024/01/02 08:41:49;;;;;;;4.68;2.30;;;;;;;;;;4908905;29;20477;-83
2024/01/02 08:44:19;;;;;;;6.35;2.78;;;;;;;;;;4923740;29;20051;-83
2024/01/02 08:46:50;;;;;;;7.28;2.58;;;;;;;;;;4909154;29;20082;-83
2024/01/02 08:49:21;;;;;;;6.72;2.50;;;;;;;;;;4941759;29;20040;-83
2024/01/02 08:51:51;;;;;;;8.43;2.60;;;;;;;;;;4908522;29;20063;-83
2024/01/02 08:54:21;;;;;;;9.85;3.20;;;;;;;;;;4924455;29;20399;-83
2024/01/02 08:56:51;;;;;;;10.30;3.33;;;;;;;;;;4923581;29;20505;-84
2024/01/02 08:59:21;;;;;;;6.70;3.30;;;;;;;;;;4941383;29;20051;-84
2024/01/02 09:01:52;;;;;;;10.13;3.47;;;;;;;;;;4925375;29;20048;-82
2024/01/02 09:04:23;;;;;;;7.70;3.05;;;;;;;;;;4924988;29;20412;-82
2024/01/02 09:06:54;;;;;;;10.75;3.42;;;;;;;;;;4922755;29;20052;-84
2024/01/02 09:09:25;;;;;;;6.88;3.00;;;;;;;;;;4905212;29;20059;-85
2024/01/02 09:11:55;;;;;;;6.57;3.15;;;;;;;;;;4938683;29;20043;-84
2024/01/02 09:14:25;;;;;;;8.95;2.83;;;;;;;;;;4922086;29;20518;-84
2024/01/02 09:16:55;;;;;;;9.40;3.08;;;;;;;;;;4920315;29;20059;-84
2024/01/02 09:19:45;;;;;;;6.68;3.80;;;;;;;;;;4938772;29;20160;-81
2024/01/02 09:22:15;;;;;;;9.40;2.90;;;;;;;;;;4920406;29;20054;-82
2024/01/02 09:24:48;;;;;;;6.93;2.75;;;;;;;;;;4937326;29;20044;-82
2024/01/02 09:27:23;;;;;;;5.68;2.90;;;;;;;;;;4938270;29;20047;-83
2024/01/02 09:29:53;;;;;;;6.30;2.60;;;;;;;;;;4938132;29;20044;-84
2024/01/02 09:32:23;;;;;;;7.90;3.30;;;;;;;;;;4937790;29;20055;-84
2024/01/02 09:34:54;;;;;;;8.57;3.05;;;;;;;;;;4920546;29;20062;-83
2024/01/02 09:37:24;;;;;;;5.22;2.20;;;;;;;;;;4938140;29;20502;-82
2024/01/02 09:39:55;;;;;;;6.63;2.67;;;;;;;;;;4938315;29;20051;-84
2024/01/02 09:42:28;;;;;;;8.88;2.83;;;;;;;;;;4937962;29;20475;-84
2024/01/02 09:45:03;;;;;;;7.40;2.83;;;;;;;;;;4921421;29;20059;-83
2024/01/02 09:47:51;;;;;;;6.70;2.78;;;;;;;;;;4936468;29;20482;-84
2024/01/02 09:51:13;;;;;;;11.43;4.18;;;;;;;;;;4935458;29;20047;-82
2024/01/02 09:54:31;;;;;;;8.85;3.20;;;;;;;;;;4911457;29;20418;-82
2024/01/02 09:57:20;;;;;;;13.15;3.47;;;;;;;;;;4935788;29;20364;-85
2024/01/02 10:00:20;;;;;;;7.38;2.53;;;;;;;;;;4937977;29;20490;-83
2024/01/02 10:02:51;;;;;;;9.13;2.67;;;;;;;;;;4932792;29;20497;-84
2024/01/02 10:05:45;;;;;;;6.95;2.72;;;;;;;;;;4937937;29;20039;-85
2024/01/02 10:08:53;;;;;;;8.52;2.63;;;;;;;;;;4937539;29;20475;-85
2024/01/02 10:11:48;;;;;;;7.25;2.42;;;;;;;;;;4937554;29;20494;-85
2024/01/02 10:14:30;;;;;;;8.48;2.63;;;;;;;;;;4921534;29;20355;-82
2024/01/02 10:17:13;;;;;;;4.30;2.15;;;;;;;;;;4920187;29;20047;-84
2024/01/02 10:20:17;;;;;;;6.28;2.30;;;;;;;;;;4919386;29;20050;-85
2024/01/02 10:22:59;;;;;;;8.27;2.15;;;;;;;;;;4937415;29;20031;-83
2024/01/02 10:25:31;;;;;;;4.80;2.00;;;;;;;;;;4936818;29;20035;-86
2024/01/02 10:28:18;;;;;;;8.93;2.20;;;;;;;;;;4937173;29;20051;-82
2024/01/02 10:31:00;;;;;;;6.65;1.90;;;;;;;;;;4920250;29;20047;-83
2024/01/02 10:33:58;;;;;;;4.95;1.23;;;;;;;;;;4937115;29;20044;-81
2024/01/02 10:36:32;;;;;;;2.92;1.33;;;;;;;;;;4915259;29;20064;-85
2024/01/02 10:39:29;;;;;;;4.80;1.20;;;;;;;;;;4920685;29;20066;-84
2024/01/02 10:42:50;;;;;;;10.88;1.40;;;;;;;;;;4928106;29;20075;-83
2024/01/02 10:45:49;;;;;;;8.10;1.80;;;;;;;;;;4920482;29;20040;-82
2024/01/02 10:48:26;;;;;;;4.60;1.63;;;;;;;;;;4920702;29;20043;-82
2024/01/02 10:51:25;;;;;;;11.38;1.48;;;;;;;;;;4937780;29;20036;-84
2024/01/02 10:54:31;;;;;;;3.42;1.50;;;;;;;;;;4927628;29;20051;-82
2024/01/02 10:57:07;;;;;;;4.05;1.50;;;;;;;;;;4924026;29;20053;-82
2024/01/02 10:59:56;;;;;;;4.18;1.40;;;;;;;;;;4923890;29;20055;-83
2024/01/02 11:02:51;;;;;;;3.42;1.38;;;;;;;;;;4918947;29;20046;-83
2024/01/02 11:05:37;;;;;;;6.40;1.52;;;;;;;;;;4928174;28;20056;-83
2024/01/02 11:08:45;;;;;;;6.35;1.20;;;;;;;;;;4941393;29;20434;-84
2024/01/02 11:11:18;;;;;;;6.70;2.00;;;;;;;;;;4938759;28;20036;-83
2024/01/02 11:13:51;;;;;;;4.60;1.58;;;;;;;;;;4937623;28;20056;-82
2024/01/02 11:16:25;;;;;;;7.65;2.13;;;;;;;;;;4934609;29;20059;-84
2024/01/02 11:18:58;;;;;;;4.15;1.52;;;;;;;;;;4934336;29;20077;-82
2024/01/02 11:21:58;;;;;;;4.72;1.85;;;;;;;;;;4917114;29;20055;-83
2024/01/02 11:24:30;;;;;;;5.07;2.70;;;;;;;;;;4933783;29;20047;-84
2024/01/02 11:27:03;;;;;;;7.55;3.78;;;;;;;;;;4933495;29;20047;-82
2024/01/02 11:29:37;;;;;;;5.35;2.35;;;;;;;;;;4932080;29;20518;-84
2024/01/02 11:32:16;;;;;;;5.57;2.40;;;;;;;;;;4914235;29;20043;-82
2024/01/02 11:34:59;;;;;;;7.43;2.58;;;;;;;;;;4931098;29;20510;-82
2024/01/02 11:37:38;;;;;;;7.32;2.75;;;;;;;;;;4934515;29;20055;-81
2024/01/02 11:40:44;;;;;;;9.00;2.22;;;;;;;;;;4915678;29;20036;-81
2024/01/02 11:43:27;;;;;;;6.18;2.30;;;;;;;;;;4934050;29;20052;-83
2024/01/02 11:45:59;;;;;;;4.43;2.40;;;;;;;;;;4933596;29;20079;-84
2024/01/02 11:48:41;;;;;;;6.00;2.35;;;;;;;;;;4917739;29;20043;-82
2024/01/02 11:51:17;;;;;;;7.22;2.60;;;;;;;;;;4917360;29;20502;-84
2024/01/02 11:54:27;;;;;;;7.10;2.55;;;;;;;;;;4935156;29;20502;-81
2024/01/02 11:56:57;;;;;;;5.38;2.78;;;;;;;;;;4924063;29;20060;-82
2024/01/02 11:59:40;;;;;;;3.58;1.98;;;;;;;;;;4920599;29;20044;-82
2024/01/02 12:02:27;;;;;;;6.78;3.72;;;;;;;;;;4918800;29;20070;-83
2024/01/02 12:05:07;;;;;;;9.73;2.50;;;;;;;;;;4918855;29;20055;-81
2024/01/02 12:07:41;;;;;;;7.53;2.28;;;;;;;;;;4935664;29;20059;-83
2024/01/02 12:10:14;;;;;;;9.02;2.75;;;;;;;;;;4933438;29;20040;-83
2024/01/02 12:13:12;;;;;;;5.40;2.38;;;;;;;;;;4915614;29;20055;-84
2024/01/02 12:15:54;;;;;;;6.30;2.33;;;;;;;;;;4918316;29;20047;-83
2024/01/02 12:18:30;;;;;;;6.15;2.33;;;;;;;;;;4918011;29;20040;-83
2024/01/02 12:21:22;;;;;;;7.93;2.83;;;;;;;;;;4901953;29;20060;-83
2024/01/02 12:23:54;;;;;;;8.15;3.72;;;;;;;;;;4933201;29;20042;-82
2024/01/02 12:26:26;;;;;;;;;;;;;;;;;;4933726;29;20048;-82
2024/01/02 12:28:59;;;;;;;8.10;2.13;;;;;;;;;;4933391;29;19930;-82
2024/01/02 12:31:50;;;;;;;10.48;2.85;;;;;;;;;;4932818;29;20390;-80
2024/01/02 12:34:28;;;;;;;5.30;2.65;;;;;;;;;;4911531;29;20043;-83
2024/01/02 12:37:14;;;;;;;6.85;2.47;;;;;;;;;;4932636;29;20050;-82
2024/01/02 12:39:48;;;;;;;6.78;2.33;;;;;;;;;;4918017;29;20040;-83
2024/01/02 12:42:24;;;;;;;6.63;2.40;;;;;;;;;;4936822;29;20035;-81
2024/01/02 12:45:02;;;;;;;4.03;2.38;;;;;;;;;;4938261;29;20117;-85
2024/01/02 12:47:40;;;;;;;9.20;2.70;;;;;;;;;;4938282;29;20039;-83
2024/01/02 12:50:12;;;;;;;7.95;2.63;;;;;;;;;;4919513;29;20036;-82
2024/01/02 12:53:02;;;;;;;6.63;3.10;;;;;;;;;;4938312;29;20399;-83
2024/01/02 12:55:36;;;;;;;6.60;2.55;;;;;;;;;;4917162;29;20518;-83
2024/01/02 13:02:07;;;;;;;6.38;2.75;;;;;;;;;;4931754;29;20047;-86
2024/01/02 13:04:37;;;;;;;7.10;2.42;;;;;;;;;;4923452;29;20039;-83
2024/01/02 13:07:36;;;;;;;5.72;2.30;;;;;;;;;;4924493;29;20052;-82
2024/01/02 13:10:07;;;;;;;6.13;2.53;;;;;;;;;;4903170;29;20051;-84
2024/01/02 13:12:43;;;;;;;5.20;2.78;;;;;;;;;;4919823;29;20039;-84
2024/01/02 13:15:21;;;;;;;5.70;2.92;;;;;;;;;;4936017;29;20059;-83
2024/01/02 13:17:53;;;;;;;5.63;2.80;;;;;;;;;;4917286;29;20471;-83
2024/01/02 13:20:23;;;;;;;9.57;3.03;;;;;;;;;;4900708;29;20056;-82
2024/01/02 13:22:55;;;;;;;4.50;2.60;;;;;;;;;;4900111;29;20048;-84
2024/01/02 13:25:27;;;;;;;6.75;2.63;;;;;;;;;;4899971;29;20056;-80
2024/01/02 13:28:16;;;;;;;9.60;3.88;;;;;;;;;;4885036;29;20071;-81
2024/01/02 13:30:49;;;;;;;5.50;2.80;;;;;;;;;;4898951;29;20056;-81
2024/01/02 13:33:20;;;;;;;;;;;;;;;;;;4901830;29;20048;-80
2024/01/02 13:36:06;;;;;;;5.82;2.60;;;;;;;;;;4916929;29;19919;-81
2024/01/02 13:38:41;;;;;;;6.00;2.80;;;;;;;;;;4901160;29;20413;-81
2024/01/02 13:41:17;;;;;;;6.35;3.13;;;;;;;;;;4900449;29;20052;-82
2024/01/02 13:43:48;;;;;;;2.80;1.88;;;;;;;;;;4900560;29;20043;-80
2024/01/02 13:46:24;;;;;;;3.60;1.77;;;;;;;;;;4917246;29;20052;-82
2024/01/02 13:49:02;;;;;;;3.60;1.92;;;;;;;;;;4928869;29;20051;-81
2024/01/02 13:51:33;;;;;;;3.53;1.52;;;;;;;;;;4905301;29;20092;-82
2024/01/02 13:54:07;;;;;;;6.38;1.70;;;;;;;;;;4921259;29;20051;-81
2024/01/02 13:56:49;;;;;;;3.80;2.20;;;;;;;;;;4920919;29;20479;-80
2024/01/02 13:59:33;;;;;;;6.50;2.30;;;;;;;;;;4921021;29;20486;-81
2024/01/02 14:02:15;;;;;;;4.18;2.90;;;;;;;;;;4937813;29;20382;-83
2024/01/02 14:04:48;;;;;;;3.90;2.50;;;;;;;;;;4921571;29;20352;-82
2024/01/02 14:07:18;;;;;;;3.47;1.95;;;;;;;;;;4937545;29;20056;-82
2024/01/02 14:09:48;;;;;;;5.30;2.50;;;;;;;;;;4938487;29;20054;-79
2024/01/02 14:12:21;;;;;;;4.63;2.50;;;;;;;;;;4938496;29;20048;-82
2024/01/02 14:15:06;;;;;;;4.72;2.35;;;;;;;;;;4937798;29;20031;-81
2024/01/02 14:17:39;;;;;;;3.95;2.55;;;;;;;;;;4924715;29;20051;-81
2024/01/02 14:20:20;;;;;;;4.03;2.03;;;;;;;;;;4937973;29;20084;-80
2024/01/02 14:23:10;;;;;;;4.88;2.08;;;;;;;;;;4920350;29;20047;-81
2024/01/02 14:25:56;;;;;;;4.15;2.05;;;;;;;;;;4919429;29;20050;-81
2024/01/02 14:28:34;;;;;;;4.22;2.10;;;;;;;;;;4930538;29;20406;-81
2024/01/02 14:31:41;;;;;;;4.88;2.50;;;;;;;;;;4936302;29;20034;-82
2024/01/02 14:34:42;;;;;;;5.30;2.13;;;;;;;;;;4925260;29;21631;-80
2024/01/02 14:37:26;;;;;;;4.35;2.10;;;;;;;;;;4904708;29;20028;-81
2024/01/02 14:40:06;;;;;;;3.60;2.15;;;;;;;;;;4933656;29;20403;-80
2024/01/02 14:42:57;;;;;;;4.95;2.25;;;;;;;;;;4934850;29;20046;-82
2024/01/02 14:45:46;;;;;;;5.35;2.05;;;;;;;;;;4916936;29;20047;-81
2024/01/02 14:49:03;;;;;;;5.65;1.80;;;;;;;;;;4918195;29;20483;-81
2024/01/02 14:52:02;;;;;;;3.35;1.50;;;;;;;;;;4877970;29;20055;-81
2024/01/02 14:54:32;;;;;;;3.20;1.60;;;;;;;;;;4934511;29;20058;-80
2024/01/02 14:57:20;;;;;;;5.30;1.90;;;;;;;;;;4934451;29;20035;-80
2024/01/02 15:00:01;;;;;;;4.53;1.77;;;;;;;;;;4916610;29;20044;-81
2024/01/02 15:02:51;;;;;;;3.30;2.10;;;;;;;;;;4930320;29;20379;-82
2024/01/02 15:05:50;;;;;;;4.00;1.70;;;;;;;;;;4918737;29;20071;-81
2024/01/02 15:08:26;;;;;;;2.97;1.50;;;;;;;;;;4907571;29;20047;-81
2024/01/02 15:11:36;;;;;;;4.30;1.60;;;;;;;;;;4936734;29;20506;-81
2024/01/02 15:14:31;;;;;;;5.03;1.70;;;;;;;;;;4936309;29;20076;-81
2024/01/02 15:17:20;;;;;;;4.75;1.65;;;;;;;;;;4918960;29;20059;-81
2024/01/02 15:19:58;;;;;;;4.07;1.45;;;;;;;;;;4936297;29;20074;-80
2024/01/02 15:22:41;;;;;;;;;;;;;;;;;;4929299;29;20067;-80
2024/01/02 15:25:38;;;;;;;3.25;1.80;;;;;;;;;;4915631;29;20293;-81
2024/01/02 15:28:25;;;;;;;3.88;1.65;;;;;;;;;;4915690;29;20515;-81
2024/01/02 15:31:03;;;;;;;7.15;2.10;;;;;;;;;;4914862;29;20036;-82
2024/01/02 15:33:36;;;;;;;6.32;2.35;;;;;;;;;;4915092;29;20056;-84
2024/01/02 15:36:26;;;;;;;3.70;1.75;;;;;;;;;;4928326;29;20040;-81
2024/01/02 15:39:13;;;;;;;3.42;1.48;;;;;;;;;;4916960;29;20048;-80